Saint-Sauveur, Quebec

4:23 PM EDT on July 23, 2016 (GMT -0400)
Saint-Sauveur | | Change Station
Active Advisory: Special Weather Statement

Elev 920 ft 45.88 °N, 74.19 °W | Updated 2 minutes ago

Mostly Cloudy
Mostly Cloudy
73.0 °F
Feels Like 73 °F
N
1.7
Wind Variable Wind from WSW

Today
High -- | Low -- °F
--% Chance of Precip.
Yesterday
High -- | Low -- °F
Precip. -- in
Pressure 29.84 in
Visibility 25.0 miles
Clouds Scattered Clouds 4500 ft
Mostly Cloudy 14000 ft
Heat Index 73 °F
Dew Point 67 °F
Humidity 81%
Rainfall 0.09 in
Snow Depth Not available.
5:29 AM 8:35 PM
Waning Gibbous, 83% visible
METAR CYMX 232000Z 24003KT 210V280 25SM SCT045TCU BKN140 21/19 A2984 RMK TCU3AC3 SLP105 DENSITY ALT 1000FT
Pressure 29.84 in
Visibility 25.0 miles
Clouds Scattered Clouds 4500 ft
Mostly Cloudy 14000 ft
Heat Index 73 °F
Dew Point 67 °F
Humidity 81%
Rainfall 0.09 in
Snow Depth Not available.
5:29 AM 8:35 PM
Waning Gibbous, 83% visible
METAR CYMX 232000Z 24003KT 210V280 25SM SCT045TCU BKN140 21/19 A2984 RMK TCU3AC3 SLP105 DENSITY ALT 1000FT

10-Day Weather Forecast

Almanac

Astronomy

Jul. 23, 2016 Rise Set
Actual Time
Civil Twilight
Nautical Twilight
Astronomical Twilight
Moon
Length of Visible Light
Length of Day
Tomorrow will be .
, % of the Moon is Illuminated

Today's Extremes

Country Highs Country Lows

Community

WunderPhotos

Upload Photos

1,926,916 photos uploaded!

WunderBlog® & News

Nearby

Air Quality

  Air Quality AQ Index Pollutant
Not available.

Snow Depth

Station Depth Elevation

Earthquake Activity

City Distance Mag. Time & Date
Minimum magnitude displayed is 2.5.

Coastal Water Temperatures

Place Temperature

Stations

Nearby Weather Stations

Station Location Temp. Windchill Dew Point Humidity Wind Precip. Elev Updated Type
                   

Watches & Warnings

Special Weather Statement
Issued: Environment Canada
Severe Thunderstorm Watch
for Quebec
updated by Environment Canada
at 3:20 p.M. EDT Saturday 23 July 2016.
---------------------------------------------------------------------
Severe Thunderstorm Watch for:
      Metro Montreal - Laval
      Vaudreuil - Soulanges - Huntingdon
      Richelieu valley - Saint-Hyacinthe
      Lanaudiere
      Lachute - Saint-Jerome
      laurentians
      eastern townships
      Drummondville - Bois-Francs.

---------------------------------------------------------------------
==Discussion==

Conditions are favourable for the development of severe 
thunderstorms that may be capable of producing strong wind gusts, 
large hail and heavy rain.

Lightning kills and injures canadians every year. Remember, when 
thunder roars, go indoors(exclamation mark) please continue to 
monitor alerts and forecasts issued by Environment Canada. To report 
severe weather, send an email to tempsviolent.Quebec(at)ec.Gc.CA or 
tweet reports to (hash)meteoqc.

Http://weather.Gc.CA

End/qspc